Time,TemperatureF,DewpointF,PressureIn,WindDirection,WindDirectionDegrees,WindSpeedMPH,WindSpeedGustMPH,Humidity,HourlyPrecipIn,Conditions,Clouds,dailyrainin,SoftwareType,DateUTC
2013-08-02 00:04:00,62.7,60.0,29.87,SE,135,9.0,-999.0,91,0.54,,,0.04,Wunderground v.1.15,2013-08-02 05:04:00,
2013-08-02 00:09:00,62.7,60.0,29.87,SE,135,9.0,-999.0,91,0.54,,,0.04,Wunderground v.1.15,2013-08-02 05:09:00,
2013-08-02 00:14:00,62.7,60.0,29.87,SE,135,9.0,-999.0,91,0.54,,,0.04,Wunderground v.1.15,2013-08-02 05:14:00,
2013-08-02 00:19:00,62.7,60.0,29.87,SE,135,9.0,-999.0,91,0.05,,,0.04,Wunderground v.1.15,2013-08-02 05:19:00,
2013-08-02 00:24:00,62.7,60.0,29.87,SE,135,9.0,-999.0,91,0.05,,,0.04,Wunderground v.1.15,2013-08-02 05:24:00,
2013-08-02 00:29:00,62.7,60.0,29.87,SE,135,9.0,-999.0,91,0.05,,,0.04,Wunderground v.1.15,2013-08-02 05:29:00,
2013-08-02 00:34:00,62.7,60.0,29.87,SE,135,9.0,-999.0,91,0.05,,,0.04,Wunderground v.1.15,2013-08-02 05:34:00,
2013-08-02 00:39:00,62.7,60.0,29.87,SE,135,9.0,-999.0,91,0.05,,,0.04,Wunderground v.1.15,2013-08-02 05:39:00,
2013-08-02 00:44:00,62.7,60.0,29.87,SE,135,9.0,-999.0,91,0.05,,,0.04,Wunderground v.1.15,2013-08-02 05:44:00,
2013-08-02 00:49:00,63.2,60.5,29.86,ENE,68,11.0,-999.0,91,0.04,,,0.04,Wunderground v.1.15,2013-08-02 05:49:00,
2013-08-02 00:54:00,63.2,60.5,29.86,ENE,68,11.0,-999.0,91,0.04,,,0.04,Wunderground v.1.15,2013-08-02 05:54:00,
2013-08-02 00:59:00,63.2,60.5,29.86,ENE,68,11.0,-999.0,91,0.04,,,0.04,Wunderground v.1.15,2013-08-02 05:59:00,
2013-08-02 01:04:00,63.2,60.5,29.86,ENE,68,11.0,-999.0,91,0.00,,,0.04,Wunderground v.1.15,2013-08-02 06:04:00,
2013-08-02 01:09:00,63.2,60.5,29.86,ENE,68,11.0,-999.0,91,0.00,,,0.04,Wunderground v.1.15,2013-08-02 06:09:00,
2013-08-02 01:14:00,63.2,60.5,29.86,ENE,68,11.0,-999.0,91,0.00,,,0.04,Wunderground v.1.15,2013-08-02 06:14:00,
2013-08-02 01:19:00,63.3,60.6,29.83,East,90,14.0,-999.0,91,0.00,,,0.04,Wunderground v.1.15,2013-08-02 06:19:00,
2013-08-02 01:24:00,63.3,60.6,29.83,East,90,14.0,-999.0,91,0.00,,,0.04,Wunderground v.1.15,2013-08-02 06:24:00,
2013-08-02 01:29:00,63.3,60.6,29.83,East,90,14.0,-999.0,91,0.00,,,0.04,Wunderground v.1.15,2013-08-02 06:29:00,
2013-08-02 01:34:00,63.3,60.6,29.83,East,90,14.0,-999.0,91,0.00,,,0.04,Wunderground v.1.15,2013-08-02 06:34:00,
2013-08-02 01:39:00,63.3,60.6,29.83,East,90,14.0,-999.0,91,0.00,,,0.04,Wunderground v.1.15,2013-08-02 06:39:00,
2013-08-02 01:44:00,63.3,60.6,29.83,East,90,14.0,-999.0,91,0.00,,,0.04,Wunderground v.1.15,2013-08-02 06:44:00,
2013-08-02 01:49:00,63.4,60.1,29.81,SE,135,20.0,-999.0,89,0.00,,,0.04,Wunderground v.1.15,2013-08-02 06:49:00,
2013-08-02 01:54:00,63.4,60.1,29.81,SE,135,20.0,-999.0,89,0.00,,,0.04,Wunderground v.1.15,2013-08-02 06:54:00,
2013-08-02 01:59:00,63.4,60.1,29.81,SE,135,20.0,-999.0,89,0.00,,,0.04,Wunderground v.1.15,2013-08-02 06:59:00,
2013-08-02 02:04:00,63.4,60.1,29.81,SE,135,20.0,-999.0,89,0.00,,,0.04,Wunderground v.1.15,2013-08-02 07:04:00,
2013-08-02 02:09:00,63.4,60.1,29.81,SE,135,20.0,-999.0,89,0.00,,,0.04,Wunderground v.1.15,2013-08-02 07:09:00,
2013-08-02 02:14:00,63.4,60.1,29.81,SE,135,20.0,-999.0,89,0.00,,,0.04,Wunderground v.1.15,2013-08-02 07:14:00,
2013-08-02 02:19:00,64.8,59.9,29.84,ESE,113,11.0,-999.0,84,0.00,,,0.04,Wunderground v.1.15,2013-08-02 07:19:00,
2013-08-02 02:24:00,64.8,59.9,29.84,ESE,113,11.0,-999.0,84,0.00,,,0.04,Wunderground v.1.15,2013-08-02 07:24:00,
2013-08-02 02:29:00,64.8,59.9,29.84,ESE,113,11.0,-999.0,84,0.00,,,0.04,Wunderground v.1.15,2013-08-02 07:29:00,
2013-08-02 02:34:00,64.8,59.9,29.84,ESE,113,11.0,-999.0,84,0.00,,,0.04,Wunderground v.1.15,2013-08-02 07:34:00,
2013-08-02 02:39:00,64.8,59.9,29.84,ESE,113,11.0,-999.0,84,0.00,,,0.04,Wunderground v.1.15,2013-08-02 07:39:00,
2013-08-02 02:44:00,64.8,59.9,29.84,ESE,113,11.0,-999.0,84,0.00,,,0.04,Wunderground v.1.15,2013-08-02 07:44:00,
2013-08-02 02:49:00,64.0,59.4,29.85,SE,135,6.0,-999.0,85,0.00,,,0.04,Wunderground v.1.15,2013-08-02 07:49:00,
2013-08-02 02:54:00,64.0,59.4,29.85,SE,135,6.0,-999.0,85,0.00,,,0.04,Wunderground v.1.15,2013-08-02 07:54:00,
2013-08-02 02:59:00,64.0,59.4,29.85,SE,135,6.0,-999.0,85,0.00,,,0.04,Wunderground v.1.15,2013-08-02 07:59:00,
2013-08-02 03:04:00,64.0,59.4,29.85,SE,135,6.0,-999.0,85,0.00,,,0.04,Wunderground v.1.15,2013-08-02 08:04:00,
2013-08-02 03:09:00,64.0,59.4,29.85,SE,135,6.0,-999.0,85,0.00,,,0.04,Wunderground v.1.15,2013-08-02 08:09:00,
2013-08-02 03:14:00,64.0,59.4,29.85,SE,135,6.0,-999.0,85,0.00,,,0.04,Wunderground v.1.15,2013-08-02 08:14:00,
2013-08-02 03:19:00,64.1,59.2,29.86,SE,135,6.0,-999.0,84,0.00,,,0.04,Wunderground v.1.15,2013-08-02 08:19:00,
2013-08-02 03:24:00,64.1,59.2,29.86,SE,135,6.0,-999.0,84,0.00,,,0.04,Wunderground v.1.15,2013-08-02 08:24:00,
2013-08-02 03:34:00,64.1,59.2,29.86,SE,135,6.0,-999.0,84,0.00,,,0.04,Wunderground v.1.15,2013-08-02 08:34:00,
2013-08-02 03:39:00,64.1,59.2,29.86,SE,135,6.0,-999.0,84,0.00,,,0.04,Wunderground v.1.15,2013-08-02 08:39:00,
2013-08-02 03:49:00,63.4,58.8,29.86,ENE,68,11.0,-999.0,85,0.00,,,0.04,Wunderground v.1.15,2013-08-02 08:49:00,
2013-08-02 03:54:00,63.4,58.8,29.86,ENE,68,11.0,-999.0,85,0.00,,,0.04,Wunderground v.1.15,2013-08-02 08:54:00,
2013-08-02 03:59:00,63.4,58.8,29.86,ENE,68,11.0,-999.0,85,0.00,,,0.04,Wunderground v.1.15,2013-08-02 08:59:00,
2013-08-02 04:04:00,63.4,58.8,29.86,ENE,68,11.0,-999.0,85,0.00,,,0.04,Wunderground v.1.15,2013-08-02 09:04:00,
2013-08-02 04:09:00,63.4,58.8,29.86,ENE,68,11.0,-999.0,85,0.00,,,0.04,Wunderground v.1.15,2013-08-02 09:09:00,
2013-08-02 04:24:00,62.9,58.6,29.86,ENE,68,9.0,-999.0,86,0.00,,,0.04,Wunderground v.1.15,2013-08-02 09:24:00,
2013-08-02 04:29:00,62.9,58.6,29.86,ENE,68,9.0,-999.0,86,0.00,,,0.04,Wunderground v.1.15,2013-08-02 09:29:00,
2013-08-02 04:34:00,62.9,58.6,29.86,ENE,68,9.0,-999.0,86,0.00,,,0.04,Wunderground v.1.15,2013-08-02 09:34:00,
2013-08-02 04:44:00,62.9,58.6,29.86,ENE,68,9.0,-999.0,86,0.00,,,0.04,Wunderground v.1.15,2013-08-02 09:44:00,
2013-08-02 04:49:00,62.8,58.5,29.86,East,90,6.0,-999.0,86,0.00,,,0.04,Wunderground v.1.15,2013-08-02 09:49:00,
2013-08-02 04:54:00,62.8,58.5,29.86,East,90,6.0,-999.0,86,0.00,,,0.04,Wunderground v.1.15,2013-08-02 09:54:00,
2013-08-02 05:04:00,62.8,58.5,29.86,East,90,6.0,-999.0,86,0.00,,,0.04,Wunderground v.1.15,2013-08-02 10:04:00,
2013-08-02 05:09:00,62.8,58.5,29.86,East,90,6.0,-999.0,86,0.00,,,0.04,Wunderground v.1.15,2013-08-02 10:09:00,
2013-08-02 05:14:00,62.8,58.5,29.86,East,90,6.0,-999.0,86,0.00,,,0.04,Wunderground v.1.15,2013-08-02 10:14:00,
2013-08-02 05:19:00,63.1,58.8,29.87,East,90,6.0,-999.0,86,0.00,,,0.04,Wunderground v.1.15,2013-08-02 10:19:00,
2013-08-02 05:24:00,63.1,58.8,29.87,East,90,6.0,-999.0,86,0.00,,,0.04,Wunderground v.1.15,2013-08-02 10:24:00,
2013-08-02 05:29:00,63.1,58.8,29.87,East,90,6.0,-999.0,86,0.00,,,0.04,Wunderground v.1.15,2013-08-02 10:29:00,
2013-08-02 05:34:00,63.1,58.8,29.87,East,90,6.0,-999.0,86,0.00,,,0.04,Wunderground v.1.15,2013-08-02 10:34:00,
2013-08-02 05:39:00,63.1,58.8,29.87,East,90,6.0,-999.0,86,0.00,,,0.04,Wunderground v.1.15,2013-08-02 10:39:00,
2013-08-02 05:44:00,63.1,58.8,29.87,East,90,6.0,-999.0,86,0.00,,,0.04,Wunderground v.1.15,2013-08-02 10:44:00,
2013-08-02 05:59:00,63.3,58.7,29.88,ESE,113,8.0,-999.0,85,0.00,,,0.04,Wunderground v.1.15,2013-08-02 10:59:00,
2013-08-02 06:09:00,63.3,58.7,29.88,ESE,113,8.0,-999.0,85,0.00,,,0.04,Wunderground v.1.15,2013-08-02 11:09:00,
2013-08-02 06:14:00,63.3,58.7,29.88,ESE,113,8.0,-999.0,85,0.00,,,0.04,Wunderground v.1.15,2013-08-02 11:14:00,
2013-08-02 06:19:00,62.7,58.8,29.87,SE,135,9.0,-999.0,87,0.00,,,0.04,Wunderground v.1.15,2013-08-02 11:19:00,
2013-08-02 06:24:00,62.7,58.8,29.87,SE,135,9.0,-999.0,87,0.00,,,0.04,Wunderground v.1.15,2013-08-02 11:24:00,
2013-08-02 06:34:00,62.7,58.8,29.87,SE,135,9.0,-999.0,87,0.00,,,0.04,Wunderground v.1.15,2013-08-02 11:34:00,
2013-08-02 06:39:00,62.7,58.8,29.87,SE,135,9.0,-999.0,87,0.00,,,0.04,Wunderground v.1.15,2013-08-02 11:39:00,
2013-08-02 06:49:00,62.5,58.6,29.88,SE,135,5.0,-999.0,87,0.00,,,0.04,Wunderground v.1.15,2013-08-02 11:49:00,
2013-08-02 06:59:00,62.5,58.6,29.88,SE,135,5.0,-999.0,87,0.00,,,0.04,Wunderground v.1.15,2013-08-02 11:59:00,
2013-08-02 07:04:00,62.5,58.6,29.88,SE,135,5.0,-999.0,87,0.00,,,0.04,Wunderground v.1.15,2013-08-02 12:04:00,
2013-08-02 07:09:00,62.5,58.6,29.88,SE,135,5.0,-999.0,87,0.00,,,0.04,Wunderground v.1.15,2013-08-02 12:09:00,
2013-08-02 07:14:00,62.5,58.6,29.88,SE,135,5.0,-999.0,87,0.00,,,0.04,Wunderground v.1.15,2013-08-02 12:14:00,
2013-08-02 07:19:00,63.1,58.8,29.88,SE,135,7.0,-999.0,86,0.00,,,0.04,Wunderground v.1.15,2013-08-02 12:19:00,
2013-08-02 07:24:00,63.1,58.8,29.88,SE,135,7.0,-999.0,86,0.00,,,0.04,Wunderground v.1.15,2013-08-02 12:24:00,
2013-08-02 07:29:00,63.1,58.8,29.88,SE,135,7.0,-999.0,86,0.00,,,0.04,Wunderground v.1.15,2013-08-02 12:29:00,
2013-08-02 07:34:00,63.1,58.8,29.88,SE,135,7.0,-999.0,86,0.00,,,0.04,Wunderground v.1.15,2013-08-02 12:34:00,
2013-08-02 07:39:00,63.1,58.8,29.88,SE,135,7.0,-999.0,86,0.00,,,0.04,Wunderground v.1.15,2013-08-02 12:39:00,
2013-08-02 07:49:00,64.2,59.3,29.88,SE,135,6.0,-999.0,84,0.00,,,0.04,Wunderground v.1.15,2013-08-02 12:49:00,
2013-08-02 07:54:00,64.2,59.3,29.88,SE,135,6.0,-999.0,84,0.00,,,0.04,Wunderground v.1.15,2013-08-02 12:54:00,
2013-08-02 07:59:00,64.2,59.3,29.88,SE,135,6.0,-999.0,84,0.00,,,0.04,Wunderground v.1.15,2013-08-02 12:59:00,
2013-08-02 08:09:00,64.2,59.3,29.88,SE,135,6.0,-999.0,84,0.00,,,0.04,Wunderground v.1.15,2013-08-02 13:09:00,
2013-08-02 08:14:00,64.2,59.3,29.88,SE,135,6.0,-999.0,84,0.00,,,0.04,Wunderground v.1.15,2013-08-02 13:14:00,
2013-08-02 08:19:00,65.2,59.9,29.88,SE,135,8.0,-999.0,83,0.00,,,0.04,Wunderground v.1.15,2013-08-02 13:19:00,
2013-08-02 08:24:00,65.2,59.9,29.88,SE,135,8.0,-999.0,83,0.00,,,0.04,Wunderground v.1.15,2013-08-02 13:24:00,
2013-08-02 08:29:00,65.2,59.9,29.88,SE,135,8.0,-999.0,83,0.00,,,0.04,Wunderground v.1.15,2013-08-02 13:29:00,
2013-08-02 08:34:00,65.2,59.9,29.88,SE,135,8.0,-999.0,83,0.00,,,0.04,Wunderground v.1.15,2013-08-02 13:34:00,
2013-08-02 08:39:00,65.2,59.9,29.88,SE,135,8.0,-999.0,83,0.00,,,0.04,Wunderground v.1.15,2013-08-02 13:39:00,
2013-08-02 08:44:00,65.2,59.9,29.88,SE,135,8.0,-999.0,83,0.00,,,0.04,Wunderground v.1.15,2013-08-02 13:44:00,
2013-08-02 08:49:00,66.5,60.1,29.88,SE,135,8.0,-999.0,80,0.00,,,0.04,Wunderground v.1.15,2013-08-02 13:49:00,
2013-08-02 08:54:00,66.5,60.1,29.88,SE,135,8.0,-999.0,80,0.00,,,0.04,Wunderground v.1.15,2013-08-02 13:54:00,
2013-08-02 08:59:00,66.5,60.1,29.88,SE,135,8.0,-999.0,80,0.00,,,0.04,Wunderground v.1.15,2013-08-02 13:59:00,
2013-08-02 09:04:00,66.5,60.1,29.88,SE,135,8.0,-999.0,80,0.00,,,0.04,Wunderground v.1.15,2013-08-02 14:04:00,
2013-08-02 09:09:00,66.5,60.1,29.88,SE,135,8.0,-999.0,80,0.00,,,0.04,Wunderground v.1.15,2013-08-02 14:09:00,
2013-08-02 09:14:00,66.5,60.1,29.88,SE,135,8.0,-999.0,80,0.00,,,0.04,Wunderground v.1.15,2013-08-02 14:14:00,
2013-08-02 09:19:00,68.2,60.3,29.88,SE,135,10.0,-999.0,76,0.00,,,0.04,Wunderground v.1.15,2013-08-02 14:19:00,
2013-08-02 09:24:00,68.2,60.3,29.88,SE,135,10.0,-999.0,76,0.00,,,0.04,Wunderground v.1.15,2013-08-02 14:24:00,
2013-08-02 09:29:00,68.2,60.3,29.88,SE,135,10.0,-999.0,76,0.00,,,0.04,Wunderground v.1.15,2013-08-02 14:29:00,
2013-08-02 09:34:00,68.2,60.3,29.88,SE,135,10.0,-999.0,76,0.00,,,0.04,Wunderground v.1.15,2013-08-02 14:34:00,
2013-08-02 09:39:00,68.2,60.3,29.88,SE,135,10.0,-999.0,76,0.00,,,0.04,Wunderground v.1.15,2013-08-02 14:39:00,
2013-08-02 09:44:00,68.2,60.3,29.88,SE,135,10.0,-999.0,76,0.00,,,0.04,Wunderground v.1.15,2013-08-02 14:44:00,
2013-08-02 09:49:00,69.5,60.8,29.89,SE,135,9.0,-999.0,74,0.00,,,0.04,Wunderground v.1.15,2013-08-02 14:49:00,
2013-08-02 09:54:00,69.5,60.8,29.89,SE,135,9.0,-999.0,74,0.00,,,0.04,Wunderground v.1.15,2013-08-02 14:54:00,
2013-08-02 09:59:00,69.5,60.8,29.89,SE,135,9.0,-999.0,74,0.00,,,0.04,Wunderground v.1.15,2013-08-02 14:59:00,
2013-08-02 10:04:00,69.5,60.8,29.89,SE,135,9.0,-999.0,74,0.00,,,0.04,Wunderground v.1.15,2013-08-02 15:04:00,
2013-08-02 10:09:00,69.5,60.8,29.89,SE,135,9.0,-999.0,74,0.00,,,0.04,Wunderground v.1.15,2013-08-02 15:09:00,
2013-08-02 10:14:00,69.5,60.8,29.89,SE,135,9.0,-999.0,74,0.00,,,0.04,Wunderground v.1.15,2013-08-02 15:14:00,
2013-08-02 10:19:00,70.6,61.1,29.89,SSE,158,8.0,-999.0,72,0.00,,,0.04,Wunderground v.1.15,2013-08-02 15:19:00,
2013-08-02 10:24:00,70.6,61.1,29.89,SSE,158,8.0,-999.0,72,0.00,,,0.04,Wunderground v.1.15,2013-08-02 15:24:00,
2013-08-02 10:29:00,70.6,61.1,29.89,SSE,158,8.0,-999.0,72,0.00,,,0.04,Wunderground v.1.15,2013-08-02 15:29:00,
2013-08-02 10:34:00,70.6,61.1,29.89,SSE,158,8.0,-999.0,72,0.00,,,0.04,Wunderground v.1.15,2013-08-02 15:34:00,
2013-08-02 10:39:00,70.6,61.1,29.89,SSE,158,8.0,-999.0,72,0.00,,,0.04,Wunderground v.1.15,2013-08-02 15:39:00,
2013-08-02 10:44:00,70.6,61.1,29.89,SSE,158,8.0,-999.0,72,0.00,,,0.04,Wunderground v.1.15,2013-08-02 15:44:00,
2013-08-02 10:49:00,72.1,62.2,29.88,South,180,8.0,-999.0,71,0.00,,,0.04,Wunderground v.1.15,2013-08-02 15:49:00,
2013-08-02 10:54:00,72.1,62.2,29.88,South,180,8.0,-999.0,71,0.00,,,0.04,Wunderground v.1.15,2013-08-02 15:54:00,
2013-08-02 10:59:00,72.1,62.2,29.88,South,180,8.0,-999.0,71,0.00,,,0.04,Wunderground v.1.15,2013-08-02 15:59:00,
2013-08-02 11:04:00,72.1,62.2,29.88,South,180,8.0,-999.0,71,0.00,,,0.04,Wunderground v.1.15,2013-08-02 16:04:00,
2013-08-02 11:09:00,72.1,62.2,29.88,South,180,8.0,-999.0,71,0.00,,,0.04,Wunderground v.1.15,2013-08-02 16:09:00,
2013-08-02 11:14:00,72.1,62.2,29.88,South,180,8.0,-999.0,71,0.00,,,0.04,Wunderground v.1.15,2013-08-02 16:14:00,
2013-08-02 11:19:00,73.7,62.5,29.88,SSE,158,9.0,-999.0,68,0.00,,,0.04,Wunderground v.1.15,2013-08-02 16:19:00,
2013-08-02 11:24:00,73.7,62.5,29.88,SSE,158,9.0,-999.0,68,0.00,,,0.04,Wunderground v.1.15,2013-08-02 16:24:00,
2013-08-02 11:29:00,73.7,62.5,29.88,SSE,158,9.0,-999.0,68,0.00,,,0.04,Wunderground v.1.15,2013-08-02 16:29:00,
2013-08-02 11:34:00,73.7,62.5,29.88,SSE,158,9.0,-999.0,68,0.00,,,0.04,Wunderground v.1.15,2013-08-02 16:34:00,
2013-08-02 11:44:00,73.7,62.5,29.88,SSE,158,9.0,-999.0,68,0.00,,,0.04,Wunderground v.1.15,2013-08-02 16:44:00,
2013-08-02 11:49:00,76.0,62.9,29.89,SE,135,6.0,-999.0,64,0.00,,,0.04,Wunderground v.1.15,2013-08-02 16:49:00,
2013-08-02 11:54:00,76.0,62.9,29.89,SE,135,6.0,-999.0,64,0.00,,,0.04,Wunderground v.1.15,2013-08-02 16:54:00,
2013-08-02 11:59:00,76.0,62.9,29.89,SE,135,6.0,-999.0,64,0.00,,,0.04,Wunderground v.1.15,2013-08-02 16:59:00,
2013-08-02 12:04:00,76.0,62.9,29.89,SE,135,6.0,-999.0,64,0.00,,,0.04,Wunderground v.1.15,2013-08-02 17:04:00,
2013-08-02 12:09:00,76.0,62.9,29.89,SE,135,6.0,-999.0,64,0.00,,,0.04,Wunderground v.1.15,2013-08-02 17:09:00,
2013-08-02 12:14:00,76.0,62.9,29.89,SE,135,6.0,-999.0,64,0.00,,,0.04,Wunderground v.1.15,2013-08-02 17:14:00,
2013-08-02 12:19:00,77.5,63.5,29.91,ESE,113,2.0,-999.0,62,0.00,,,0.04,Wunderground v.1.15,2013-08-02 17:19:00,
2013-08-02 12:24:00,77.5,63.5,29.91,ESE,113,2.0,-999.0,62,0.00,,,0.04,Wunderground v.1.15,2013-08-02 17:24:00,
2013-08-02 12:29:00,77.5,63.5,29.91,ESE,113,2.0,-999.0,62,0.00,,,0.04,Wunderground v.1.15,2013-08-02 17:29:00,
2013-08-02 12:34:00,77.5,63.5,29.91,ESE,113,2.0,-999.0,62,0.00,,,0.04,Wunderground v.1.15,2013-08-02 17:34:00,
2013-08-02 12:39:00,77.5,63.5,29.91,ESE,113,2.0,-999.0,62,0.00,,,0.04,Wunderground v.1.15,2013-08-02 17:39:00,
2013-08-02 12:44:00,77.5,63.5,29.91,ESE,113,2.0,-999.0,62,0.00,,,0.04,Wunderground v.1.15,2013-08-02 17:44:00,
2013-08-02 12:49:00,78.7,64.1,29.90,ESE,113,2.0,-999.0,61,0.00,,,0.04,Wunderground v.1.15,2013-08-02 17:49:00,
2013-08-02 12:54:00,78.7,64.1,29.90,ESE,113,2.0,-999.0,61,0.00,,,0.04,Wunderground v.1.15,2013-08-02 17:54:00,
2013-08-02 12:59:00,78.7,64.1,29.90,ESE,113,2.0,-999.0,61,0.00,,,0.04,Wunderground v.1.15,2013-08-02 17:59:00,
2013-08-02 13:04:00,78.7,64.1,29.90,ESE,113,2.0,-999.0,61,0.00,,,0.04,Wunderground v.1.15,2013-08-02 18:04:00,
2013-08-02 13:09:00,78.7,64.1,29.90,ESE,113,2.0,-999.0,61,0.00,,,0.04,Wunderground v.1.15,2013-08-02 18:09:00,
2013-08-02 13:14:00,78.7,64.1,29.90,ESE,113,2.0,-999.0,61,0.00,,,0.04,Wunderground v.1.15,2013-08-02 18:14:00,
2013-08-02 13:19:00,78.0,64.4,29.90,East,90,5.0,-999.0,63,0.00,,,0.04,Wunderground v.1.15,2013-08-02 18:19:00,
2013-08-02 13:24:00,78.0,64.4,29.90,East,90,5.0,-999.0,63,0.00,,,0.04,Wunderground v.1.15,2013-08-02 18:24:00,
2013-08-02 13:29:00,78.0,64.4,29.90,East,90,5.0,-999.0,63,0.00,,,0.04,Wunderground v.1.15,2013-08-02 18:29:00,
2013-08-02 13:34:00,78.0,64.4,29.90,East,90,5.0,-999.0,63,0.00,,,0.04,Wunderground v.1.15,2013-08-02 18:34:00,
2013-08-02 13:39:00,78.0,64.4,29.90,East,90,5.0,-999.0,63,0.00,,,0.04,Wunderground v.1.15,2013-08-02 18:39:00,
2013-08-02 13:44:00,78.0,64.4,29.90,East,90,5.0,-999.0,63,0.00,,,0.04,Wunderground v.1.15,2013-08-02 18:44:00,
2013-08-02 13:49:00,77.8,64.2,29.89,ENE,68,5.0,-999.0,63,0.00,,,0.04,Wunderground v.1.15,2013-08-02 18:49:00,
2013-08-02 13:54:00,77.8,64.2,29.89,ENE,68,5.0,-999.0,63,0.00,,,0.04,Wunderground v.1.15,2013-08-02 18:54:00,
2013-08-02 13:59:00,77.8,64.2,29.89,ENE,68,5.0,-999.0,63,0.00,,,0.04,Wunderground v.1.15,2013-08-02 18:59:00,
2013-08-02 14:04:00,77.8,64.2,29.89,ENE,68,5.0,-999.0,63,0.00,,,0.04,Wunderground v.1.15,2013-08-02 19:04:00,
2013-08-02 14:09:00,77.8,64.2,29.89,ENE,68,5.0,-999.0,63,0.00,,,0.04,Wunderground v.1.15,2013-08-02 19:09:00,
2013-08-02 14:14:00,77.8,64.2,29.89,ENE,68,5.0,-999.0,63,0.00,,,0.04,Wunderground v.1.15,2013-08-02 19:14:00,
2013-08-02 14:19:00,78.5,65.3,29.89,ENE,68,6.0,-999.0,64,0.00,,,0.04,Wunderground v.1.15,2013-08-02 19:19:00,
2013-08-02 14:24:00,78.5,65.3,29.89,ENE,68,6.0,-999.0,64,0.00,,,0.04,Wunderground v.1.15,2013-08-02 19:24:00,
2013-08-02 14:29:00,78.5,65.3,29.89,ENE,68,6.0,-999.0,64,0.00,,,0.04,Wunderground v.1.15,2013-08-02 19:29:00,
2013-08-02 14:34:00,78.5,65.3,29.89,ENE,68,6.0,-999.0,64,0.00,,,0.04,Wunderground v.1.15,2013-08-02 19:34:00,
2013-08-02 14:39:00,78.5,65.3,29.89,ENE,68,6.0,-999.0,64,0.00,,,0.04,Wunderground v.1.15,2013-08-02 19:39:00,
2013-08-02 14:44:00,78.5,65.3,29.89,ENE,68,6.0,-999.0,64,0.00,,,0.04,Wunderground v.1.15,2013-08-02 19:44:00,
2013-08-02 14:49:00,78.6,65.4,29.90,ENE,68,8.0,-999.0,64,0.00,,,0.04,Wunderground v.1.15,2013-08-02 19:49:00,
2013-08-02 14:54:00,78.6,65.4,29.90,ENE,68,8.0,-999.0,64,0.00,,,0.04,Wunderground v.1.15,2013-08-02 19:54:00,
2013-08-02 14:59:00,78.6,65.4,29.90,ENE,68,8.0,-999.0,64,0.00,,,0.04,Wunderground v.1.15,2013-08-02 19:59:00,
2013-08-02 15:04:00,78.6,65.4,29.90,ENE,68,8.0,-999.0,64,0.00,,,0.04,Wunderground v.1.15,2013-08-02 20:04:00,
2013-08-02 15:09:00,78.6,65.4,29.90,ENE,68,8.0,-999.0,64,0.00,,,0.04,Wunderground v.1.15,2013-08-02 20:09:00,
2013-08-02 15:14:00,78.6,65.4,29.90,ENE,68,8.0,-999.0,64,0.00,,,0.04,Wunderground v.1.15,2013-08-02 20:14:00,
2013-08-02 15:19:00,79.6,65.9,29.91,ENE,68,7.0,-999.0,63,0.00,,,0.04,Wunderground v.1.15,2013-08-02 20:19:00,
2013-08-02 15:24:00,79.6,65.9,29.91,ENE,68,7.0,-999.0,63,0.00,,,0.04,Wunderground v.1.15,2013-08-02 20:24:00,
2013-08-02 15:29:00,79.6,65.9,29.91,ENE,68,7.0,-999.0,63,0.00,,,0.04,Wunderground v.1.15,2013-08-02 20:29:00,
2013-08-02 15:34:00,79.6,65.9,29.91,ENE,68,7.0,-999.0,63,0.00,,,0.04,Wunderground v.1.15,2013-08-02 20:34:00,
2013-08-02 15:39:00,79.6,65.9,29.91,ENE,68,7.0,-999.0,63,0.00,,,0.04,Wunderground v.1.15,2013-08-02 20:39:00,
2013-08-02 15:44:00,79.6,65.9,29.91,ENE,68,7.0,-999.0,63,0.00,,,0.04,Wunderground v.1.15,2013-08-02 20:44:00,
2013-08-02 15:49:00,79.5,65.8,29.91,NE,45,6.0,-999.0,63,0.00,,,0.04,Wunderground v.1.15,2013-08-02 20:49:00,
2013-08-02 15:54:00,79.5,65.8,29.91,NE,45,6.0,-999.0,63,0.00,,,0.04,Wunderground v.1.15,2013-08-02 20:54:00,
2013-08-02 15:59:00,79.5,65.8,29.91,NE,45,6.0,-999.0,63,0.00,,,0.04,Wunderground v.1.15,2013-08-02 20:59:00,
2013-08-02 16:04:00,79.5,65.8,29.91,NE,45,6.0,-999.0,63,0.00,,,0.04,Wunderground v.1.15,2013-08-02 21:04:00,
2013-08-02 16:09:00,79.5,65.8,29.91,NE,45,6.0,-999.0,63,0.00,,,0.04,Wunderground v.1.15,2013-08-02 21:09:00,
2013-08-02 16:14:00,79.5,65.8,29.91,NE,45,6.0,-999.0,63,0.00,,,0.04,Wunderground v.1.15,2013-08-02 21:14:00,
2013-08-02 16:19:00,80.2,66.9,29.91,ENE,68,8.0,-999.0,64,0.00,,,0.04,Wunderground v.1.15,2013-08-02 21:19:00,
2013-08-02 16:24:00,80.2,66.9,29.91,ENE,68,8.0,-999.0,64,0.00,,,0.04,Wunderground v.1.15,2013-08-02 21:24:00,
2013-08-02 16:29:00,80.2,66.9,29.91,ENE,68,8.0,-999.0,64,0.00,,,0.04,Wunderground v.1.15,2013-08-02 21:29:00,
2013-08-02 16:34:00,80.2,66.9,29.91,ENE,68,8.0,-999.0,64,0.00,,,0.04,Wunderground v.1.15,2013-08-02 21:34:00,
2013-08-02 16:39:00,80.2,66.9,29.91,ENE,68,8.0,-999.0,64,0.00,,,0.04,Wunderground v.1.15,2013-08-02 21:39:00,
2013-08-02 16:44:00,80.2,66.9,29.91,ENE,68,8.0,-999.0,64,0.00,,,0.04,Wunderground v.1.15,2013-08-02 21:44:00,
2013-08-02 16:49:00,79.5,65.8,29.91,ENE,68,10.0,-999.0,63,0.00,,,0.04,Wunderground v.1.15,2013-08-02 21:49:00,
2013-08-02 16:54:00,79.5,65.8,29.91,ENE,68,10.0,-999.0,63,0.00,,,0.04,Wunderground v.1.15,2013-08-02 21:54:00,
2013-08-02 16:59:00,79.5,65.8,29.91,ENE,68,10.0,-999.0,63,0.00,,,0.04,Wunderground v.1.15,2013-08-02 21:59:00,
2013-08-02 17:04:00,79.5,65.8,29.91,ENE,68,10.0,-999.0,63,0.00,,,0.04,Wunderground v.1.15,2013-08-02 22:04:00,
2013-08-02 17:09:00,79.5,65.8,29.91,ENE,68,10.0,-999.0,63,0.00,,,0.04,Wunderground v.1.15,2013-08-02 22:09:00,
2013-08-02 17:14:00,79.5,65.8,29.91,ENE,68,10.0,-999.0,63,0.00,,,0.04,Wunderground v.1.15,2013-08-02 22:14:00,
2013-08-02 17:19:00,79.1,66.3,29.91,ENE,68,13.0,-999.0,65,0.00,,,0.04,Wunderground v.1.15,2013-08-02 22:19:00,
2013-08-02 17:24:00,79.1,66.3,29.91,ENE,68,13.0,-999.0,65,0.00,,,0.04,Wunderground v.1.15,2013-08-02 22:24:00,
2013-08-02 17:29:00,79.1,66.3,29.91,ENE,68,13.0,-999.0,65,0.00,,,0.04,Wunderground v.1.15,2013-08-02 22:29:00,
2013-08-02 17:34:00,79.1,66.3,29.91,ENE,68,13.0,-999.0,65,0.00,,,0.04,Wunderground v.1.15,2013-08-02 22:34:00,
2013-08-02 17:39:00,79.1,66.3,29.91,ENE,68,13.0,-999.0,65,0.00,,,0.04,Wunderground v.1.15,2013-08-02 22:39:00,
2013-08-02 17:44:00,79.1,66.3,29.91,ENE,68,13.0,-999.0,65,0.00,,,0.04,Wunderground v.1.15,2013-08-02 22:44:00,
2013-08-02 17:49:00,79.0,67.1,29.91,ENE,68,14.0,-999.0,67,0.00,,,0.04,Wunderground v.1.15,2013-08-02 22:49:00,
2013-08-02 17:54:00,79.0,67.1,29.91,ENE,68,14.0,-999.0,67,0.00,,,0.04,Wunderground v.1.15,2013-08-02 22:54:00,
2013-08-02 17:59:00,79.0,67.1,29.91,ENE,68,14.0,-999.0,67,0.00,,,0.04,Wunderground v.1.15,2013-08-02 22:59:00,
2013-08-02 18:04:00,79.0,67.1,29.91,ENE,68,14.0,-999.0,67,0.00,,,0.04,Wunderground v.1.15,2013-08-02 23:04:00,
2013-08-02 18:09:00,79.0,67.1,29.91,ENE,68,14.0,-999.0,67,0.00,,,0.04,Wunderground v.1.15,2013-08-02 23:09:00,
2013-08-02 18:14:00,79.0,67.1,29.91,ENE,68,14.0,-999.0,67,0.00,,,0.04,Wunderground v.1.15,2013-08-02 23:14:00,
2013-08-02 18:19:00,78.0,66.6,29.91,ENE,68,14.0,-999.0,68,0.00,,,0.04,Wunderground v.1.15,2013-08-02 23:19:00,
2013-08-02 18:24:00,78.0,66.6,29.91,ENE,68,14.0,-999.0,68,0.00,,,0.04,Wunderground v.1.15,2013-08-02 23:24:00,
2013-08-02 18:29:00,78.0,66.6,29.91,ENE,68,14.0,-999.0,68,0.00,,,0.04,Wunderground v.1.15,2013-08-02 23:29:00,
2013-08-02 18:34:00,78.0,66.6,29.91,ENE,68,14.0,-999.0,68,0.00,,,0.04,Wunderground v.1.15,2013-08-02 23:34:00,
2013-08-02 18:39:00,78.0,66.6,29.91,ENE,68,14.0,-999.0,68,0.00,,,0.04,Wunderground v.1.15,2013-08-02 23:39:00,
2013-08-02 18:44:00,78.0,66.6,29.91,ENE,68,14.0,-999.0,68,0.00,,,0.04,Wunderground v.1.15,2013-08-02 23:44:00,
2013-08-02 18:49:00,78.2,66.3,29.91,ENE,68,15.0,-999.0,67,0.00,,,0.04,Wunderground v.1.15,2013-08-02 23:49:00,
2013-08-02 18:54:00,78.2,66.3,29.91,ENE,68,15.0,-999.0,67,0.00,,,0.04,Wunderground v.1.15,2013-08-02 23:54:00,
2013-08-02 18:59:00,78.2,66.3,29.91,ENE,68,15.0,-999.0,67,0.00,,,0.04,Wunderground v.1.15,2013-08-02 23:59:00,
2013-08-02 19:04:00,78.2,66.3,29.91,ENE,68,15.0,-999.0,67,0.00,,,0.04,Wunderground v.1.15,2013-08-03 00:04:00,
2013-08-02 19:09:00,78.2,66.3,29.91,ENE,68,15.0,-999.0,67,0.00,,,0.04,Wunderground v.1.15,2013-08-03 00:09:00,
2013-08-02 19:14:00,78.2,66.3,29.91,ENE,68,15.0,-999.0,67,0.00,,,0.04,Wunderground v.1.15,2013-08-03 00:14:00,
2013-08-02 19:19:00,77.4,66.4,29.91,ENE,68,16.0,-999.0,69,0.00,,,0.04,Wunderground v.1.15,2013-08-03 00:19:00,
2013-08-02 19:24:00,77.4,66.4,29.91,ENE,68,16.0,-999.0,69,0.00,,,0.04,Wunderground v.1.15,2013-08-03 00:24:00,
2013-08-02 19:29:00,77.4,66.4,29.91,ENE,68,16.0,-999.0,69,0.00,,,0.04,Wunderground v.1.15,2013-08-03 00:29:00,
2013-08-02 19:34:00,77.4,66.4,29.91,ENE,68,16.0,-999.0,69,0.00,,,0.04,Wunderground v.1.15,2013-08-03 00:34:00,
2013-08-02 19:39:00,77.4,66.4,29.91,ENE,68,16.0,-999.0,69,0.00,,,0.04,Wunderground v.1.15,2013-08-03 00:39:00,
2013-08-02 19:44:00,77.4,66.4,29.91,ENE,68,16.0,-999.0,69,0.00,,,0.04,Wunderground v.1.15,2013-08-03 00:44:00,
2013-08-02 19:49:00,76.5,66.8,29.92,ENE,68,15.0,-999.0,72,0.00,,,0.04,Wunderground v.1.15,2013-08-03 00:49:00,
2013-08-02 19:54:00,76.5,66.8,29.92,ENE,68,15.0,-999.0,72,0.00,,,0.04,Wunderground v.1.15,2013-08-03 00:54:00,
2013-08-02 19:59:00,76.5,66.8,29.92,ENE,68,15.0,-999.0,72,0.00,,,0.04,Wunderground v.1.15,2013-08-03 00:59:00,
2013-08-02 20:04:00,76.5,66.8,29.92,ENE,68,15.0,-999.0,72,0.00,,,0.04,Wunderground v.1.15,2013-08-03 01:04:00,
2013-08-02 20:09:00,76.5,66.8,29.92,ENE,68,15.0,-999.0,72,0.00,,,0.04,Wunderground v.1.15,2013-08-03 01:09:00,
2013-08-02 20:14:00,76.5,66.8,29.92,ENE,68,15.0,-999.0,72,0.00,,,0.04,Wunderground v.1.15,2013-08-03 01:14:00,
2013-08-02 20:19:00,75.4,66.9,29.94,ENE,68,14.0,-999.0,75,0.00,,,0.04,Wunderground v.1.15,2013-08-03 01:19:00,
2013-08-02 20:24:00,75.4,66.9,29.94,ENE,68,14.0,-999.0,75,0.00,,,0.04,Wunderground v.1.15,2013-08-03 01:24:00,
2013-08-02 20:29:00,75.4,66.9,29.94,ENE,68,14.0,-999.0,75,0.00,,,0.04,Wunderground v.1.15,2013-08-03 01:29:00,
2013-08-02 20:34:00,75.4,66.9,29.94,ENE,68,14.0,-999.0,75,0.00,,,0.04,Wunderground v.1.15,2013-08-03 01:34:00,
2013-08-02 20:39:00,75.4,66.9,29.94,ENE,68,14.0,-999.0,75,0.00,,,0.04,Wunderground v.1.15,2013-08-03 01:39:00,
2013-08-02 20:44:00,75.4,66.9,29.94,ENE,68,14.0,-999.0,75,0.00,,,0.04,Wunderground v.1.15,2013-08-03 01:44:00,
2013-08-02 20:49:00,73.9,66.2,29.95,ENE,68,10.0,-999.0,77,0.00,,,0.04,Wunderground v.1.15,2013-08-03 01:49:00,
2013-08-02 20:54:00,73.9,66.2,29.95,ENE,68,10.0,-999.0,77,0.00,,,0.04,Wunderground v.1.15,2013-08-03 01:54:00,
2013-08-02 20:59:00,73.9,66.2,29.95,ENE,68,10.0,-999.0,77,0.00,,,0.04,Wunderground v.1.15,2013-08-03 01:59:00,
2013-08-02 21:04:00,73.9,66.2,29.95,ENE,68,10.0,-999.0,77,0.00,,,0.04,Wunderground v.1.15,2013-08-03 02:04:00,
2013-08-02 21:09:00,73.9,66.2,29.95,ENE,68,10.0,-999.0,77,0.00,,,0.04,Wunderground v.1.15,2013-08-03 02:09:00,
2013-08-02 21:14:00,73.9,66.2,29.95,ENE,68,10.0,-999.0,77,0.00,,,0.04,Wunderground v.1.15,2013-08-03 02:14:00,
2013-08-02 21:19:00,72.6,66.1,29.96,ENE,68,10.0,-999.0,80,0.00,,,0.04,Wunderground v.1.15,2013-08-03 02:19:00,
2013-08-02 21:24:00,72.6,66.1,29.96,ENE,68,10.0,-999.0,80,0.00,,,0.04,Wunderground v.1.15,2013-08-03 02:24:00,
2013-08-02 21:29:00,72.6,66.1,29.96,ENE,68,10.0,-999.0,80,0.00,,,0.04,Wunderground v.1.15,2013-08-03 02:29:00,
2013-08-02 21:34:00,72.6,66.1,29.96,ENE,68,10.0,-999.0,80,0.00,,,0.04,Wunderground v.1.15,2013-08-03 02:34:00,
2013-08-02 21:39:00,72.6,66.1,29.96,ENE,68,10.0,-999.0,80,0.00,,,0.04,Wunderground v.1.15,2013-08-03 02:39:00,
2013-08-02 21:44:00,72.6,66.1,29.96,ENE,68,10.0,-999.0,80,0.00,,,0.04,Wunderground v.1.15,2013-08-03 02:44:00,
2013-08-02 21:49:00,71.5,65.4,29.97,NE,45,11.0,-999.0,81,0.00,,,0.04,Wunderground v.1.15,2013-08-03 02:49:00,
2013-08-02 21:54:00,71.5,65.4,29.97,NE,45,11.0,-999.0,81,0.00,,,0.04,Wunderground v.1.15,2013-08-03 02:54:00,
2013-08-02 21:59:00,71.5,65.4,29.97,NE,45,11.0,-999.0,81,0.00,,,0.04,Wunderground v.1.15,2013-08-03 02:59:00,
2013-08-02 22:04:00,71.5,65.4,29.97,NE,45,11.0,-999.0,81,0.00,,,0.04,Wunderground v.1.15,2013-08-03 03:04:00,
2013-08-02 22:09:00,71.5,65.4,29.97,NE,45,11.0,-999.0,81,0.00,,,0.04,Wunderground v.1.15,2013-08-03 03:09:00,
2013-08-02 22:14:00,71.5,65.4,29.97,NE,45,11.0,-999.0,81,0.00,,,0.04,Wunderground v.1.15,2013-08-03 03:14:00,
2013-08-02 22:19:00,70.5,65.1,29.99,NE,45,11.0,-999.0,83,0.00,,,0.04,Wunderground v.1.15,2013-08-03 03:19:00,
2013-08-02 22:24:00,70.5,65.1,29.99,NE,45,11.0,-999.0,83,0.00,,,0.04,Wunderground v.1.15,2013-08-03 03:24:00,
2013-08-02 22:29:00,70.5,65.1,29.99,NE,45,11.0,-999.0,83,0.00,,,0.04,Wunderground v.1.15,2013-08-03 03:29:00,
2013-08-02 22:34:00,70.5,65.1,29.99,NE,45,11.0,-999.0,83,0.00,,,0.04,Wunderground v.1.15,2013-08-03 03:34:00,
2013-08-02 22:39:00,70.5,65.1,29.99,NE,45,11.0,-999.0,83,0.00,,,0.04,Wunderground v.1.15,2013-08-03 03:39:00,
2013-08-02 22:44:00,70.5,65.1,29.99,NE,45,11.0,-999.0,83,0.00,,,0.04,Wunderground v.1.15,2013-08-03 03:44:00,
2013-08-02 22:49:00,69.6,64.9,30.00,NE,45,11.0,-999.0,85,0.00,,,0.04,Wunderground v.1.15,2013-08-03 03:49:00,
2013-08-02 22:54:00,69.6,64.9,30.00,NE,45,11.0,-999.0,85,0.00,,,0.04,Wunderground v.1.15,2013-08-03 03:54:00,
2013-08-02 22:59:00,69.6,64.9,30.00,NE,45,11.0,-999.0,85,0.00,,,0.04,Wunderground v.1.15,2013-08-03 03:59:00,
2013-08-02 23:04:00,69.6,64.9,30.00,NE,45,11.0,-999.0,85,0.00,,,0.04,Wunderground v.1.15,2013-08-03 04:04:00,
2013-08-02 23:09:00,69.6,64.9,30.00,NE,45,11.0,-999.0,85,0.00,,,0.04,Wunderground v.1.15,2013-08-03 04:09:00,
2013-08-02 23:14:00,69.6,64.9,30.00,NE,45,11.0,-999.0,85,0.00,,,0.04,Wunderground v.1.15,2013-08-03 04:14:00,
2013-08-02 23:19:00,69.2,64.8,30.00,NNE,23,11.0,-999.0,86,0.00,,,0.04,Wunderground v.1.15,2013-08-03 04:19:00,
2013-08-02 23:24:00,69.2,64.8,30.00,NNE,23,11.0,-999.0,86,0.00,,,0.04,Wunderground v.1.15,2013-08-03 04:24:00,
2013-08-02 23:29:00,69.2,64.8,30.00,NNE,23,11.0,-999.0,86,0.00,,,0.04,Wunderground v.1.15,2013-08-03 04:29:00,
2013-08-02 23:34:00,69.2,64.8,30.00,NNE,23,11.0,-999.0,86,0.00,,,0.04,Wunderground v.1.15,2013-08-03 04:34:00,
2013-08-02 23:39:00,69.2,64.8,30.00,NNE,23,11.0,-999.0,86,0.00,,,0.04,Wunderground v.1.15,2013-08-03 04:39:00,
2013-08-02 23:44:00,69.2,64.8,30.00,NNE,23,11.0,-999.0,86,0.00,,,0.04,Wunderground v.1.15,2013-08-03 04:44:00,
2013-08-02 23:49:00,68.7,64.7,30.01,NE,45,10.0,-999.0,87,0.00,,,0.04,Wunderground v.1.15,2013-08-03 04:49:00,
2013-08-02 23:54:00,68.7,64.7,30.01,NE,45,10.0,-999.0,87,0.00,,,0.04,Wunderground v.1.15,2013-08-03 04:54:00,
2013-08-02 23:59:00,68.7,64.7,30.01,NE,45,10.0,-999.0,87,0.00,,,0.04,Wunderground v.1.15,2013-08-03 04:59:00,